Medley, West Virginia
Current Conditions -  °F | °C
As of 3:35 PM on Friday 28 Nov 2014 (Local Time) from KW99 Reporting Station
Clear Clear  
Wind Chill: 24°   Ceiling: Unl
Heat Index: 32°   Visibility: 10mi
Dew Point: 13°   Wind: 10mph
Humidity: 46%   Direction: 250°WSW
Pressure: 30.27"   Gusts: NA
Location:  39.18°N, 79.06°W
Report Text: KW99 282035Z AUTO 25009KT 10SM CLR 00/M10 A3027 RMK AO2 T00001103 PNO
Loading
Personal Weather Stations






























Interactive Weather Map New forecast layout! Learn more

10-Day Weather Forecast

Advertisements
Track Severe Weather on mobile